Etusivu
METAR-TAF:

METAR-TAF

Lentoasemat :

Eskişehir, Turkki

Leveyspiiri: 39-47N, Pituuspiiri: 030-34E, korkeus merenpinnasta: 785 m

METAR: puuttuu

Aika: 13:56 (10:56 UTC)

Sääennuste

Tämä raportti tehtiin 3 tuntia ja 16 minuuttia sitten, kello 07.40 UTC
Ennuste voimassa 04. päivästä klo 09 UTC - 04. päivään klo 18 UTC
Tuuli 8 kn idästä
Näkyvyys 10 km tai enemmän
ei pilviä alle 1500 m:ssä eikä cumulonimbus-pilviä
Tulossa
04. päivästä klo 14 UTC - 04. päivään klo 16 UTC
Muutamia pilviä 4000 ft:n korkeudessa

TAF: LTBI 040740Z 0409/0418 10008KT CAVOK BECMG 0414/0416 FEW040

Säähavainnot ja -ennusteet yli 4000 lentoasemalta (METAR- ja TAF-raportit).

Käytössä olevat sääasemat on merkitty karttaan keltaisilla ja punaisilla pisteillä.

Aseta hiiri pisteen päälle nähdäksesi sääaseman nimen.

Klikkaa sitten nähdäksesi säähavainnot ja -ennusteet.

Kartan vaihtaminen: klikkaa mustalla rastilla varustettuja vihreitä pisteitä, niin voit zoomata sisään; viivalla varustettua vihreää pistettä, niin voit zoomata ulos tai vihreitä nuolia, niin pääset viereisille kartoille.


METAR-TAF: